Time;durP1;ratioP1;P1;durP2;ratioP2;P2;SDS_P1;SDS_P2;PMS_P1;PMS_P2;Temp;Humidity;BMP_temperature;BMP_pressure;BME280_temperature;BME280_humidity;BME280_pressure;Samples;Min_cycle;Max_cycle;Signal;HPM_P1;HPM_P2
2022/04/01 00:02:06;;;;;;;13.90;7.15;;;5.20;99.90;;;;;;20671715;28;20065;-76
2022/04/01 00:12:08;;;;;;;14.07;7.60;;;5.20;99.90;;;;;;20671407;28;20061;-74
2022/04/01 00:22:09;;;;;;;18.52;8.43;;;5.20;99.90;;;;;;20670628;28;20041;-75
2022/04/01 00:32:09;;;;;;;;;;;5.10;99.90;;;;;;20670428;28;20625;-73
2022/04/01 00:42:11;;;;;;;22.20;10.40;;;5.00;99.90;;;;;;20669216;28;20004;-75
2022/04/01 00:52:15;;;;;;;24.35;9.70;;;5.00;99.90;;;;;;20667771;28;20109;-75
2022/04/01 01:02:17;;;;;;;25.25;11.13;;;5.00;99.90;;;;;;20667478;28;20034;-76
2022/04/01 01:12:19;;;;;;;25.63;11.88;;;5.00;99.90;;;;;;20666583;28;20038;-75
2022/04/01 01:22:20;;;;;;;31.45;12.30;;;4.90;99.90;;;;;;20648631;28;20046;-74
2022/04/01 01:32:22;;;;;;;;;;;4.90;99.90;;;;;;20632117;28;20378;-74
2022/04/01 01:42:23;;;;;;;36.92;14.65;;;4.80;99.90;;;;;;20664839;28;19913;-74
2022/04/01 02:02:43;;;;;;;39.03;16.60;;;4.70;99.90;;;;;;20661904;28;19955;-75
2022/04/01 02:12:44;;;;;;;;;;;4.70;99.90;;;;;;20662952;28;20034;-74
2022/04/01 02:22:45;;;;;;;40.90;14.88;;;4.70;99.90;;;;;;20660980;28;19910;-75
2022/04/01 02:32:47;;;;;;;52.25;19.48;;;4.60;99.90;;;;;;20644424;28;20046;-75
2022/04/01 02:42:58;;;;;;;56.13;19.83;;;4.50;99.90;;;;;;20644161;28;20023;-75
2022/04/01 02:52:59;;;;;;;42.72;15.10;;;4.40;99.90;;;;;;20659678;28;20040;-75
2022/04/01 03:03:02;;;;;;;;;;;4.40;99.90;;;;;;20661433;28;20105;-74
2022/04/01 03:13:04;;;;;;;24.98;10.13;;;4.40;99.90;;;;;;20650262;28;19913;-75
2022/04/01 03:23:22;;;;;;;21.48;8.73;;;4.30;99.90;;;;;;20657791;28;20468;-75
2022/04/01 03:33:23;;;;;;;19.80;9.60;;;4.10;99.90;;;;;;20867480;22;20044;-78
2022/04/01 03:43:25;;;;;;;26.73;11.00;;;4.10;99.90;;;;;;20926598;28;20060;-78
2022/04/01 03:53:34;;;;;;;22.17;11.40;;;3.80;99.90;;;;;;20850860;28;20025;-78
2022/04/01 04:03:40;;;;;;;30.23;11.80;;;3.70;99.90;;;;;;20925221;28;20036;-78
2022/04/01 04:13:45;;;;;;;28.20;11.13;;;3.60;99.90;;;;;;20961702;28;20106;-78
2022/04/01 04:23:55;;;;;;;23.70;10.95;;;3.60;99.90;;;;;;20977001;28;20378;-76
2022/04/01 04:33:58;;;;;;;25.35;10.07;;;3.60;99.90;;;;;;20996327;28;20032;-77
2022/04/01 04:44:01;;;;;;;23.85;10.40;;;3.50;99.90;;;;;;20980046;28;20039;-78
2022/04/01 04:54:03;;;;;;;28.55;12.32;;;3.40;99.90;;;;;;20992981;28;20060;-76
2022/04/01 05:04:25;;;;;;;31.25;11.73;;;3.40;99.90;;;;;;20988072;28;20041;-77
2022/04/01 05:14:43;;;;;;;39.28;14.55;;;3.20;99.90;;;;;;20970973;28;20062;-78
2022/04/01 05:24:51;;;;;;;36.67;15.20;;;3.00;99.90;;;;;;20979003;28;20036;-77
2022/04/01 05:34:53;;;;;;;31.85;13.30;;;2.90;99.90;;;;;;20979031;28;20512;-78
2022/04/01 05:44:55;;;;;;;28.27;12.05;;;2.80;99.90;;;;;;20984814;28;20429;-75
2022/04/01 05:54:57;;;;;;;30.40;12.38;;;2.70;99.90;;;;;;20977283;28;20083;-77
2022/04/01 06:05:26;;;;;;;27.65;11.38;;;2.50;99.90;;;;;;20900986;28;20162;-79
2022/04/01 06:15:45;;;;;;;29.63;13.60;;;2.60;99.90;;;;;;20907758;28;20021;-77
2022/04/01 06:26:11;;;;;;;28.63;13.60;;;2.50;99.90;;;;;;20926368;28;20056;-78
2022/04/01 06:36:18;;;;;;;35.17;15.88;;;2.50;99.90;;;;;;20890411;28;20039;-79
2022/04/01 06:46:19;;;;;;;34.17;15.68;;;2.60;99.90;;;;;;20912235;28;20393;-79
2022/04/01 06:56:27;;;;;;;36.00;16.75;;;2.60;99.90;;;;;;20943660;28;20096;-79
2022/04/01 07:06:29;;;;;;;48.50;19.13;;;2.70;99.90;;;;;;20925716;28;20025;-80
2022/04/01 07:16:30;;;;;;;48.33;21.58;;;2.90;99.90;;;;;;20940399;28;20131;-77
2022/04/01 07:26:30;;;;;;;58.05;21.42;;;3.00;99.90;;;;;;20921196;28;20044;-78
2022/04/01 07:36:31;;;;;;;44.40;18.55;;;3.10;99.90;;;;;;20937992;28;20100;-80
2022/04/01 07:46:32;;;;;;;37.67;17.48;;;3.30;99.90;;;;;;20934973;28;20037;-79
2022/04/01 07:56:34;;;;;;;36.50;16.42;;;3.20;99.90;;;;;;20902972;28;20040;-77
2022/04/01 08:06:35;;;;;;;33.22;15.02;;;3.40;99.90;;;;;;20917155;28;20029;-78
2022/04/01 08:16:36;;;;;;;33.85;16.40;;;3.30;99.90;;;;;;20911807;28;20024;-75
2022/04/01 08:26:37;;;;;;;35.35;16.35;;;3.30;99.90;;;;;;20931705;28;20035;-78
2022/04/01 08:36:38;;;;;;;30.83;14.98;;;3.50;99.90;;;;;;20929826;28;20094;-79
2022/04/01 08:46:39;;;;;;;30.38;14.45;;;3.50;99.90;;;;;;20910738;28;20025;-77
2022/04/01 08:56:40;;;;;;;28.08;13.40;;;3.50;99.90;;;;;;20928733;28;20029;-77
2022/04/01 09:06:41;;;;;;;26.05;13.23;;;3.80;99.90;;;;;;20926513;28;20033;-78
2022/04/01 09:16:42;;;;;;;33.67;16.63;;;4.10;99.90;;;;;;20926012;28;20048;-76
2022/04/01 09:26:43;;;;;;;22.63;11.85;;;3.70;99.90;;;;;;20925425;28;20082;-78
2022/04/01 09:36:44;;;;;;;14.60;8.77;;;3.60;99.90;;;;;;20857914;23;20053;-75
2022/04/01 09:46:56;;;;;;;20.67;10.05;;;3.70;99.90;;;;;;20754128;28;20077;-74
2022/04/01 09:56:58;;;;;;;13.82;7.50;;;3.70;99.90;;;;;;20745325;28;20068;-74
2022/04/01 10:07:01;;;;;;;18.00;9.73;;;4.00;99.90;;;;;;20744847;28;20042;-75
2022/04/01 10:17:03;;;;;;;21.70;11.95;;;3.60;99.90;;;;;;20744079;28;20038;-74
2022/04/01 10:27:13;;;;;;;20.23;9.82;;;3.40;99.90;;;;;;20743647;28;20080;-74
2022/04/01 10:37:16;;;;;;;19.35;9.68;;;3.30;99.90;;;;;;20743178;28;20033;-74
2022/04/01 10:47:17;;;;;;;20.80;10.95;;;3.00;99.90;;;;;;20744345;28;20090;-74
2022/04/01 10:57:29;;;;;;;16.70;9.10;;;2.80;99.90;;;;;;20743023;28;20030;-76
2022/04/01 11:07:33;;;;;;;16.60;6.65;;;3.00;99.90;;;;;;20742526;28;20503;-76
2022/04/01 11:17:34;;;;;;;10.90;5.78;;;3.00;99.90;;;;;;20745453;28;20054;-76
2022/04/01 11:27:35;;;;;;;9.75;5.35;;;3.10;99.90;;;;;;20741710;28;20026;-76
2022/04/01 11:37:44;;;;;;;10.55;4.47;;;3.20;99.90;;;;;;20754676;28;20057;-75
2022/04/01 11:47:45;;;;;;;5.97;3.95;;;2.90;99.90;;;;;;20756188;28;20435;-74
2022/04/01 11:57:47;;;;;;;10.77;4.13;;;3.10;99.90;;;;;;20755002;28;20511;-76
2022/04/01 12:18:28;;;;;;;5.85;3.50;;;3.10;99.90;;;;;;20752716;28;20515;-76
2022/04/01 12:28:40;;;;;;;5.17;3.70;;;3.20;99.90;;;;;;20751162;28;20054;-76
2022/04/01 12:38:43;;;;;;;9.30;3.45;;;3.10;99.90;;;;;;20750446;28;20113;-75
2022/04/01 12:48:56;;;;;;;7.53;4.30;;;2.90;99.90;;;;;;20729455;28;20030;-75
2022/04/01 12:59:02;;;;;;;8.13;4.97;;;2.70;99.90;;;;;;20789118;28;20120;-76
2022/04/01 13:09:09;;;;;;;5.45;3.85;;;2.80;99.90;;;;;;20809890;28;20099;-77
2022/04/01 13:19:37;;;;;;;10.68;5.60;;;2.70;99.90;;;;;;20822800;28;20048;-76
2022/04/01 13:29:40;;;;;;;8.38;4.82;;;3.00;99.90;;;;;;20789210;28;20045;-76
2022/04/01 13:39:41;;;;;;;9.30;5.75;;;2.70;99.90;;;;;;20792923;28;20519;-76
2022/04/01 13:49:43;;;;;;;6.53;4.32;;;2.60;99.90;;;;;;20807578;28;20029;-76
2022/04/01 13:59:44;;;;;;;9.80;4.97;;;2.60;99.90;;;;;;20806200;28;20060;-76
2022/04/01 14:09:46;;;;;;;8.95;5.18;;;2.60;99.90;;;;;;20807211;28;20025;-75
2022/04/01 14:19:47;;;;;;;8.55;5.05;;;2.50;99.90;;;;;;20806372;28;20499;-74
2022/04/01 14:40:09;;;;;;;6.65;4.22;;;2.40;99.90;;;;;;20808399;28;20439;-76
2022/04/01 14:50:13;;;;;;;9.00;4.75;;;2.30;99.90;;;;;;20804849;28;20051;-75
2022/04/01 15:00:15;;;;;;;15.30;4.70;;;2.30;99.90;;;;;;20749189;28;20041;-77
2022/04/01 15:10:16;;;;;;;8.18;4.53;;;2.50;99.90;;;;;;20819769;28;20124;-76
2022/04/01 15:20:17;;;;;;;6.63;4.18;;;2.40;99.90;;;;;;20821362;28;20120;-77
2022/04/01 15:30:18;;;;;;;6.70;4.40;;;2.40;99.90;;;;;;20805813;28;20407;-77
2022/04/01 15:40:20;;;;;;;6.10;3.90;;;2.60;99.90;;;;;;20871013;28;20052;-77
2022/04/01 15:50:23;;;;;;;7.00;4.50;;;2.50;99.90;;;;;;20906840;22;20422;-76
2022/04/01 16:00:24;;;;;;;6.65;4.05;;;2.50;99.90;;;;;;20920714;28;20036;-76
2022/04/01 16:10:27;;;;;;;8.38;4.60;;;2.70;99.90;;;;;;20901650;28;20036;-76
2022/04/01 16:20:29;;;;;;;7.20;4.43;;;2.70;99.90;;;;;;20880725;28;20037;-76
2022/04/01 16:30:31;;;;;;;6.90;4.40;;;2.70;99.90;;;;;;20897140;28;20033;-76
2022/04/01 16:40:31;;;;;;;7.78;4.72;;;2.50;99.90;;;;;;20895841;28;20045;-76
2022/04/01 16:50:32;;;;;;;9.85;5.15;;;2.40;99.90;;;;;;20894645;28;20036;-75
2022/04/01 17:00:34;;;;;;;12.80;5.93;;;2.50;99.90;;;;;;20917577;28;20486;-76
2022/04/01 17:20:41;;;;;;;8.15;5.57;;;2.40;99.90;;;;;;20897317;28;20036;-76
2022/04/01 17:30:47;;;;;;;14.88;7.18;;;2.30;99.90;;;;;;20891435;28;20033;-75
2022/04/01 17:40:49;;;;;;;17.98;9.07;;;2.10;99.90;;;;;;20800727;28;20162;-75
2022/04/01 17:50:50;;;;;;;16.88;8.98;;;1.90;99.90;;;;;;20789798;28;20503;-75
2022/04/01 18:00:52;;;;;;;15.00;8.32;;;1.90;99.90;;;;;;20850258;28;20059;-76
2022/04/01 18:10:54;;;;;;;22.25;12.02;;;1.80;99.90;;;;;;20887945;28;20060;-75
2022/04/01 18:20:55;;;;;;;19.38;10.95;;;1.80;99.90;;;;;;20866640;28;20029;-76
2022/04/01 18:31:03;;;;;;;19.65;10.60;;;1.70;99.90;;;;;;20883493;28;20033;-76
2022/04/01 18:41:06;;;;;;;22.77;11.52;;;1.70;99.90;;;;;;20901391;28;20029;-75
2022/04/01 18:51:07;;;;;;;23.40;10.90;;;1.70;99.90;;;;;;20901747;28;20029;-75
2022/04/01 19:01:12;;;;;;;29.17;11.82;;;1.70;99.90;;;;;;20911691;28;20036;-75
2022/04/01 19:11:31;;;;;;;22.10;11.60;;;1.70;99.90;;;;;;20925593;28;20033;-76
2022/04/01 19:21:33;;;;;;;23.27;13.63;;;1.80;99.90;;;;;;20917868;28;20083;-77
2022/04/01 19:31:34;;;;;;;22.25;12.10;;;1.90;99.90;;;;;;20924037;28;20029;-78
2022/04/01 19:41:35;;;;;;;24.60;13.52;;;1.70;99.90;;;;;;20902305;28;20556;-75
2022/04/01 19:51:37;;;;;;;27.33;13.80;;;1.70;99.90;;;;;;20918488;28;20046;-77
2022/04/01 20:01:37;;;;;;;28.92;15.90;;;1.70;99.90;;;;;;20918554;28;20040;-76
2022/04/01 20:11:38;;;;;;;25.73;14.65;;;1.70;99.90;;;;;;20899758;28;20060;-75
2022/04/01 20:21:39;;;;;;;32.58;16.90;;;1.80;99.90;;;;;;20883161;28;20059;-76
2022/04/01 20:31:40;;;;;;;33.08;16.20;;;1.80;99.90;;;;;;20916060;28;20036;-77
2022/04/01 20:41:43;;;;;;;40.70;19.15;;;1.70;99.90;;;;;;20895095;28;20041;-77
2022/04/01 20:51:43;;;;;;;31.13;16.92;;;1.80;99.90;;;;;;20880209;28;20044;-76
2022/04/01 21:01:44;;;;;;;30.98;16.42;;;1.80;99.90;;;;;;20895295;28;20029;-76
2022/04/01 21:11:45;;;;;;;32.42;16.80;;;1.80;99.90;;;;;;20896183;28;20466;-77
2022/04/01 21:21:48;;;;;;;31.05;16.65;;;1.80;99.90;;;;;;20881746;28;20152;-77
2022/04/01 21:31:48;;;;;;;35.00;16.92;;;1.70;99.90;;;;;;20924231;28;20742;-77
2022/04/01 21:41:49;;;;;;;30.73;15.82;;;1.70;99.90;;;;;;20921414;22;20063;-74
2022/04/01 21:51:50;;;;;;;35.13;17.45;;;1.70;99.90;;;;;;20882338;28;20037;-73
2022/04/01 22:01:52;;;;;;;30.77;15.63;;;1.70;99.90;;;;;;20810517;28;20044;-73
2022/04/01 22:11:53;;;;;;;23.40;12.20;;;1.70;99.90;;;;;;20771287;28;20042;-73
2022/04/01 22:21:55;;;;;;;29.60;14.30;;;1.80;99.90;;;;;;20743789;28;20026;-74
2022/04/01 22:31:56;;;;;;;23.35;11.27;;;1.60;99.90;;;;;;20742257;28;20063;-74
2022/04/01 22:41:57;;;;;;;20.25;10.45;;;1.40;99.90;;;;;;20743134;28;20034;-74
2022/04/01 23:02:18;;;;;;;19.15;10.15;;;1.30;99.90;;;;;;20742576;28;20038;-74
2022/04/01 23:12:19;;;;;;;17.08;9.00;;;1.40;99.90;;;;;;20724230;28;20124;-73
2022/04/01 23:22:21;;;;;;;16.15;9.32;;;1.30;99.90;;;;;;20741590;28;20076;-74
2022/04/01 23:32:24;;;;;;;22.15;10.48;;;1.10;99.90;;;;;;20751354;28;20022;-73
2022/04/01 23:42:24;;;;;;;22.45;12.35;;;0.90;99.90;;;;;;20755791;28;20447;-74
2022/04/01 23:52:25;;;;;;;30.20;15.45;;;0.80;99.90;;;;;;20754866;28;20086;-74
